createdAt,value
2023-05-04T00:02:10.463Z,100812.78
2023-05-04T00:04:37.200Z,100815.19
2023-05-04T00:07:03.812Z,100819.63
2023-05-04T00:09:31.754Z,100814.38
2023-05-04T00:11:58.316Z,100816.31
2023-05-04T00:14:24.960Z,100819.03
2023-05-04T00:16:51.611Z,100811.09
2023-05-04T00:19:19.549Z,100808.53
2023-05-04T00:21:46.488Z,100805.94
2023-05-04T00:24:13.124Z,100807.09
2023-05-04T00:26:39.994Z,100807.22
2023-05-04T00:29:06.574Z,100803.69
2023-05-04T00:31:33.217Z,100806.94
2023-05-04T00:33:59.789Z,100799.25
2023-05-04T00:36:26.334Z,100800.22
2023-05-04T00:38:55.168Z,100801.34
2023-05-04T00:41:22.254Z,100798.94
2023-05-04T00:43:49.224Z,100800.78
2023-05-04T00:46:16.283Z,100805.03
2023-05-04T00:48:45.444Z,100805.91
2023-05-04T00:51:13.680Z,100805.03
2023-05-04T00:53:41.371Z,100805.31
2023-05-04T00:56:08.310Z,100805.47
2023-05-04T00:58:35.221Z,100803.88
2023-05-04T01:01:03.559Z,100802.19
2023-05-04T01:03:31.421Z,100799.88
2023-05-04T01:06:16.319Z,100802.81
2023-05-04T01:08:47.577Z,100795.28
2023-05-04T01:11:25.354Z,100797.53
2023-05-04T01:13:52.805Z,100796.66
2023-05-04T01:16:20.892Z,100791.56
2023-05-04T01:18:47.594Z,100801.91
2023-05-04T01:21:14.201Z,100802.03
2023-05-04T01:23:40.918Z,100796.03
2023-05-04T01:26:17.115Z,100791.06
2023-05-04T01:29:03.062Z,100796.84
2023-05-04T01:31:30.253Z,100793.97
2023-05-04T01:33:57.585Z,100796.88
2023-05-04T01:36:25.418Z,100797.03
2023-05-04T01:38:57.658Z,100794.59
2023-05-04T01:41:24.352Z,100798.81
2023-05-04T01:43:51.097Z,100795.53
2023-05-04T01:46:17.791Z,100801.16
2023-05-04T01:48:46.746Z,100804.25
2023-05-04T01:51:13.504Z,100798.81
2023-05-04T01:53:40.060Z,100799.06
2023-05-04T01:56:07.031Z,100801.50
2023-05-04T01:58:33.588Z,100797.41
2023-05-04T02:01:00.265Z,100792.38
2023-05-04T02:03:26.947Z,100787.56
2023-05-04T02:05:53.721Z,100787.31
2023-05-04T02:08:20.356Z,100795.53
2023-05-04T02:10:48.073Z,100790.84
2023-05-04T02:13:14.729Z,100792.28
2023-05-04T02:15:41.595Z,100793.00
2023-05-04T02:18:08.318Z,100785.50
2023-05-04T02:20:35.046Z,100792.47
2023-05-04T02:23:01.784Z,100792.22
2023-05-04T02:25:28.457Z,100793.91
2023-05-04T02:27:55.059Z,100789.53
2023-05-04T02:30:21.638Z,100795.28
2023-05-04T02:32:48.197Z,100783.22
2023-05-04T02:35:14.926Z,100783.63
2023-05-04T02:37:41.538Z,100788.78
2023-05-04T02:40:08.710Z,100785.78
2023-05-04T02:42:35.472Z,100798.06
2023-05-04T02:45:02.137Z,100796.75
2023-05-04T02:47:28.753Z,100797.53
2023-05-04T02:49:55.308Z,100797.06
2023-05-04T02:52:21.893Z,100792.06
2023-05-04T02:54:48.492Z,100799.06
2023-05-04T02:57:15.070Z,100797.63
2023-05-04T02:59:41.824Z,100792.50
2023-05-04T03:02:08.350Z,100797.16
2023-05-04T03:04:35.031Z,100791.66
2023-05-04T03:07:01.752Z,100794.88
2023-05-04T03:09:28.304Z,100795.13
2023-05-04T03:11:55.165Z,100800.91
2023-05-04T03:14:21.730Z,100797.81
2023-05-04T03:16:48.382Z,100796.47
2023-05-04T03:19:18.987Z,100798.06
2023-05-04T03:21:46.703Z,100798.34
2023-05-04T03:24:13.456Z,100795.28
2023-05-04T03:26:40.146Z,100798.47
2023-05-04T03:29:06.796Z,100801.78
2023-05-04T03:31:33.515Z,100806.69
2023-05-04T03:34:00.135Z,100806.69
2023-05-04T03:36:26.741Z,100804.00
2023-05-04T03:38:53.278Z,100799.84
2023-05-04T03:41:19.822Z,100807.66
2023-05-04T03:43:46.503Z,100811.94
2023-05-04T03:46:13.284Z,100807.41
2023-05-04T03:48:40.263Z,100814.50
2023-05-04T03:51:07.489Z,100815.00
2023-05-04T03:53:35.664Z,100817.69
2023-05-04T03:56:02.841Z,100818.78
2023-05-04T03:58:29.452Z,100819.66
2023-05-04T04:00:56.085Z,100818.91
2023-05-04T04:03:22.843Z,100816.22
2023-05-04T04:05:50.110Z,100822.19
2023-05-04T04:08:16.699Z,100814.00
2023-05-04T04:10:43.507Z,100824.41
2023-05-04T04:13:10.213Z,100816.97
2023-05-04T04:15:36.852Z,100818.41
2023-05-04T04:18:03.676Z,100819.88
2023-05-04T04:20:30.330Z,100822.06
2023-05-04T04:22:56.924Z,100828.53
2023-05-04T04:25:24.494Z,100827.06
2023-05-04T04:27:51.336Z,100834.41
2023-05-04T04:30:18.037Z,100826.56
2023-05-04T04:32:45.837Z,100832.91
2023-05-04T04:35:12.583Z,100827.16
2023-05-04T04:37:39.136Z,100825.06
2023-05-04T04:40:07.782Z,100833.50
2023-05-04T04:42:34.863Z,100832.00
2023-05-04T04:45:05.301Z,100835.91
2023-05-04T04:47:34.655Z,100835.22
2023-05-04T04:50:01.675Z,100833.47
2023-05-04T04:52:28.544Z,100843.22
2023-05-04T04:54:55.208Z,100836.94
2023-05-04T04:57:21.762Z,100841.28
2023-05-04T04:59:48.340Z,100847.72
2023-05-04T05:02:15.219Z,100843.50
2023-05-04T05:04:41.900Z,100840.28
2023-05-04T05:07:08.985Z,100841.31
2023-05-04T05:09:35.952Z,100833.81
2023-05-04T05:12:02.543Z,100837.53
2023-05-04T05:14:29.123Z,100837.00
2023-05-04T05:16:55.864Z,100838.16
2023-05-04T05:19:22.462Z,100837.53
2023-05-04T05:21:49.362Z,100842.00
2023-05-04T05:24:17.244Z,100838.44
2023-05-04T05:26:43.856Z,100844.72
2023-05-04T05:29:10.405Z,100847.47
2023-05-04T05:31:37.008Z,100842.19
2023-05-04T05:34:03.629Z,100842.50
2023-05-04T05:36:30.229Z,100853.19
2023-05-04T05:38:56.750Z,100846.78
2023-05-04T05:41:23.335Z,100843.53
2023-05-04T05:43:49.948Z,100840.44
2023-05-04T05:46:16.656Z,100850.53
2023-05-04T05:48:43.327Z,100856.34
2023-05-04T05:51:10.106Z,100846.13
2023-05-04T05:53:36.670Z,100859.06
2023-05-04T05:56:03.337Z,100861.34
2023-05-04T05:58:29.915Z,100853.78
2023-05-04T06:00:56.505Z,100858.63
2023-05-04T06:03:23.202Z,100861.59
2023-05-04T06:05:49.938Z,100862.47
2023-05-04T06:08:16.480Z,100859.75
2023-05-04T06:10:43.086Z,100867.84
2023-05-04T06:13:09.698Z,100859.38
2023-05-04T06:15:36.653Z,100854.13
2023-05-04T06:18:03.447Z,100854.22
2023-05-04T06:20:30.155Z,100863.03
2023-05-04T06:22:57.216Z,100858.41
2023-05-04T06:25:24.007Z,100864.47
2023-05-04T06:27:50.791Z,100859.72
2023-05-04T06:30:17.938Z,100857.63
2023-05-04T06:32:44.538Z,100866.09
2023-05-04T06:35:11.754Z,100864.50
2023-05-04T06:37:38.408Z,100871.03
2023-05-04T06:40:05.622Z,100866.72
2023-05-04T06:42:32.193Z,100868.47
2023-05-04T06:44:58.884Z,100865.00
2023-05-04T06:47:25.550Z,100870.81
2023-05-04T06:49:52.182Z,100870.31
2023-05-04T06:52:18.723Z,100871.25
2023-05-04T06:54:46.267Z,100867.47
2023-05-04T06:57:12.933Z,100874.09
2023-05-04T06:59:39.506Z,100876.41
2023-05-04T07:02:06.485Z,100880.19
2023-05-04T07:04:33.085Z,100878.72
2023-05-04T07:06:59.651Z,100878.22
2023-05-04T07:09:26.261Z,100871.63
2023-05-04T07:11:52.838Z,100873.72
2023-05-04T07:14:19.401Z,100872.00
2023-05-04T07:16:46.201Z,100879.13
2023-05-04T07:19:12.913Z,100871.38
2023-05-04T07:21:39.432Z,100872.44
2023-05-04T07:24:07.080Z,100874.53
2023-05-04T07:26:33.871Z,100875.03
2023-05-04T07:29:00.454Z,100873.03
2023-05-04T07:31:29.502Z,100879.81
2023-05-04T07:33:57.177Z,100882.38
2023-05-04T07:36:26.558Z,100878.50
2023-05-04T07:38:53.838Z,100876.97
2023-05-04T07:41:20.498Z,100877.03
2023-05-04T07:43:47.106Z,100891.00
2023-05-04T07:46:13.904Z,100882.84
2023-05-04T07:48:40.529Z,100880.50
2023-05-04T07:51:12.829Z,100874.91
2023-05-04T07:53:39.437Z,100876.09
2023-05-04T07:56:13.946Z,100876.91
2023-05-04T07:58:42.296Z,100880.88
2023-05-04T08:01:08.884Z,100870.22
2023-05-04T08:03:36.476Z,100870.59
2023-05-04T08:06:03.306Z,100873.19
2023-05-04T08:08:30.498Z,100879.50
2023-05-04T08:11:07.978Z,100871.00
2023-05-04T08:13:46.221Z,100877.28
2023-05-04T08:16:13.581Z,100874.56
2023-05-04T08:18:40.171Z,100886.81
2023-05-04T08:21:07.002Z,100880.31
2023-05-04T08:23:33.907Z,100885.72
2023-05-04T08:26:04.365Z,100885.72
2023-05-04T08:28:33.180Z,100878.34
2023-05-04T08:30:59.776Z,100882.22
2023-05-04T08:33:26.336Z,100882.31
2023-05-04T08:35:52.954Z,100888.97
2023-05-04T08:38:19.545Z,100886.13
2023-05-04T08:40:46.465Z,100886.09
2023-05-04T08:43:13.790Z,100884.50
2023-05-04T08:45:41.207Z,100880.16
2023-05-04T08:48:09.003Z,100885.88
2023-05-04T08:50:37.283Z,100877.28
2023-05-04T08:53:06.819Z,100875.28
2023-05-04T08:55:37.782Z,100872.66
2023-05-04T08:58:11.585Z,100882.22
2023-05-04T09:00:39.142Z,100872.47
2023-05-04T09:03:07.781Z,100874.06
2023-05-04T09:05:35.399Z,100872.75
2023-05-04T09:08:02.199Z,100870.56
2023-05-04T09:10:30.464Z,100871.69
2023-05-04T09:12:57.116Z,100870.75
2023-05-04T09:15:24.176Z,100876.41
2023-05-04T09:18:02.792Z,100881.47
2023-05-04T09:20:30.789Z,100871.94
2023-05-04T09:23:08.313Z,100874.72
2023-05-04T09:25:47.478Z,100874.38
2023-05-04T09:28:14.805Z,100865.47
2023-05-04T09:30:41.985Z,100868.38
2023-05-04T09:33:09.227Z,100869.22
2023-05-04T09:35:35.903Z,100870.00
2023-05-04T09:38:02.532Z,100860.19
2023-05-04T09:40:32.626Z,100863.78
2023-05-04T09:43:01.102Z,100861.16
2023-05-04T09:45:39.443Z,100861.88
2023-05-04T09:48:16.431Z,100859.13
2023-05-04T09:50:52.302Z,100860.28
2023-05-04T09:53:22.080Z,100854.28
2023-05-04T09:56:02.173Z,100862.94
2023-05-04T09:58:30.880Z,100848.25
2023-05-04T10:01:01.151Z,100845.81
2023-05-04T10:03:28.757Z,100838.72
2023-05-04T10:05:55.936Z,100836.44
2023-05-04T10:08:23.496Z,100836.00
2023-05-04T10:10:51.372Z,100829.09
2023-05-04T10:13:18.114Z,100826.78
2023-05-04T10:16:16.230Z,100829.50
2023-05-04T10:19:01.683Z,100826.09
2023-05-04T10:22:05.949Z,100829.47
2023-05-04T10:25:04.703Z,100823.75
2023-05-04T10:27:39.519Z,100820.16
2023-05-04T10:30:07.706Z,100823.59
2023-05-04T10:32:39.777Z,100809.44
2023-05-04T10:35:07.677Z,100817.25
2023-05-04T10:37:37.555Z,100811.13
2023-05-04T10:40:10.951Z,100816.59
2023-05-04T10:42:42.934Z,100813.03
2023-05-04T10:45:10.538Z,100809.91
2023-05-04T10:47:40.787Z,100806.72
2023-05-04T10:50:14.487Z,100806.53
2023-05-04T10:52:53.730Z,100806.09
2023-05-04T10:55:22.087Z,100797.00
2023-05-04T10:57:55.472Z,100801.03
2023-05-04T11:00:22.877Z,100798.69
2023-05-04T11:02:52.458Z,100794.22
2023-05-04T11:05:20.392Z,100791.06
2023-05-04T11:07:50.847Z,100791.03
2023-05-04T11:10:25.897Z,100789.25
2023-05-04T11:12:55.354Z,100782.59
2023-05-04T11:15:22.083Z,100779.59
2023-05-04T11:17:52.850Z,100780.72
2023-05-04T11:20:24.070Z,100767.84
2023-05-04T11:22:53.466Z,100762.25
2023-05-04T11:25:30.428Z,100768.06
2023-05-04T11:27:58.879Z,100766.38
2023-05-04T11:30:35.563Z,100766.38
2023-05-04T11:33:05.338Z,100758.34
2023-05-04T11:35:32.387Z,100760.22
2023-05-04T11:37:59.103Z,100752.81
2023-05-04T11:40:26.972Z,100754.88
2023-05-04T11:42:57.708Z,100747.94
2023-05-04T11:45:35.337Z,100751.28
2023-05-04T11:48:02.622Z,100756.31
2023-05-04T11:50:29.705Z,100757.78
2023-05-04T11:53:07.207Z,100754.78
2023-05-04T11:55:33.977Z,100755.34
2023-05-04T11:58:03.379Z,100761.03
2023-05-04T12:00:41.586Z,100756.41
2023-05-04T12:03:12.169Z,100750.16
2023-05-04T12:05:40.004Z,100745.75
2023-05-04T12:08:08.811Z,100745.13
2023-05-04T12:10:35.469Z,100752.69
2023-05-04T12:13:02.500Z,100752.25
2023-05-04T12:15:39.204Z,100745.50
2023-05-04T12:18:05.959Z,100745.16
2023-05-04T12:20:33.537Z,100739.69
2023-05-04T12:23:06.145Z,100732.16
2023-05-04T12:25:32.931Z,100735.97
2023-05-04T12:27:59.905Z,100728.13
2023-05-04T12:30:26.452Z,100728.16
2023-05-04T12:32:53.113Z,100725.41
2023-05-04T12:35:19.718Z,100726.88
2023-05-04T12:37:46.283Z,100725.19
2023-05-04T12:40:27.397Z,100723.91
2023-05-04T12:42:55.066Z,100729.56
2023-05-04T12:45:22.717Z,100727.78
2023-05-04T12:47:49.496Z,100721.75
2023-05-04T12:50:16.315Z,100724.91
2023-05-04T12:52:42.893Z,100725.97
2023-05-04T12:55:09.743Z,100724.94
2023-05-04T12:57:36.307Z,100727.44
2023-05-04T13:00:04.179Z,100724.34
2023-05-04T13:02:30.860Z,100728.97
2023-05-04T13:04:58.671Z,100727.53
2023-05-04T13:07:25.249Z,100722.44
2023-05-04T13:09:51.834Z,100724.81
2023-05-04T13:12:18.569Z,100720.47
2023-05-04T13:14:45.323Z,100718.50
2023-05-04T13:17:12.064Z,100719.50
2023-05-04T13:19:38.713Z,100713.44
2023-05-04T13:22:05.335Z,100711.00
2023-05-04T13:24:31.924Z,100709.19
2023-05-04T13:26:58.497Z,100705.34
2023-05-04T13:29:25.049Z,100700.19
2023-05-04T13:31:51.666Z,100701.00
2023-05-04T13:34:18.304Z,100690.47
2023-05-04T13:36:44.924Z,100694.81
2023-05-04T13:39:11.889Z,100682.06
2023-05-04T13:41:38.558Z,100678.31
2023-05-04T13:44:05.173Z,100681.31
2023-05-04T13:46:31.837Z,100674.94
2023-05-04T13:48:58.416Z,100673.44
2023-05-04T13:51:24.984Z,100673.59
2023-05-04T13:53:51.551Z,100672.44
2023-05-04T13:56:18.115Z,100677.69
2023-05-04T13:58:44.888Z,100682.53
2023-05-04T14:01:11.565Z,100677.78
2023-05-04T14:03:38.261Z,100675.53
2023-05-04T14:06:05.076Z,100674.41
2023-05-04T14:08:31.623Z,100670.06
2023-05-04T14:10:58.747Z,100666.81
2023-05-04T14:13:25.422Z,100669.66
2023-05-04T14:15:52.542Z,100667.06
2023-05-04T14:18:19.161Z,100660.00
2023-05-04T14:20:45.788Z,100659.38
2023-05-04T14:23:12.449Z,100653.25
2023-05-04T14:25:42.019Z,100660.38
2023-05-04T14:28:08.973Z,100664.56
2023-05-04T14:30:35.696Z,100663.38
2023-05-04T14:33:03.756Z,100652.09
2023-05-04T14:35:30.575Z,100651.94
2023-05-04T14:37:57.188Z,100658.25
2023-05-04T14:40:23.782Z,100656.00
2023-05-04T14:42:50.494Z,100652.97
2023-05-04T14:45:17.388Z,100646.47
2023-05-04T14:47:43.974Z,100652.19
2023-05-04T14:50:11.530Z,100642.81
2023-05-04T14:52:38.192Z,100648.47
2023-05-04T14:55:06.755Z,100644.00
2023-05-04T14:57:33.639Z,100649.22
2023-05-04T15:00:00.343Z,100642.63
2023-05-04T15:02:26.953Z,100642.75
2023-05-04T15:04:53.590Z,100650.41
2023-05-04T15:07:20.949Z,100644.66
2023-05-04T15:09:47.692Z,100643.81
2023-05-04T15:12:14.294Z,100647.06
2023-05-04T15:14:40.926Z,100645.50
2023-05-04T15:17:07.725Z,100649.09
2023-05-04T15:19:37.838Z,100647.63
2023-05-04T15:22:05.140Z,100645.69
2023-05-04T15:24:31.940Z,100642.34
2023-05-04T15:26:58.744Z,100640.13
2023-05-04T15:29:25.817Z,100635.56
2023-05-04T15:31:52.397Z,100637.31
2023-05-04T15:34:19.309Z,100637.28
2023-05-04T15:36:46.033Z,100636.78
2023-05-04T15:39:13.424Z,100639.25
2023-05-04T15:41:42.248Z,100637.28
2023-05-04T15:44:08.819Z,100639.50
2023-05-04T15:46:35.881Z,100647.00
2023-05-04T15:49:02.531Z,100639.19
2023-05-04T15:51:30.731Z,100633.94
2023-05-04T15:53:57.626Z,100636.66
2023-05-04T15:56:24.258Z,100641.69
2023-05-04T15:58:50.826Z,100635.31
2023-05-04T16:01:17.587Z,100635.53
2023-05-04T16:03:44.269Z,100630.63
2023-05-04T16:06:11.861Z,100633.03
2023-05-04T16:08:39.301Z,100634.91
2023-05-04T16:11:08.768Z,100627.06
2023-05-04T16:13:35.398Z,100630.56
2023-05-04T16:16:02.143Z,100642.09
2023-05-04T16:18:28.730Z,100637.97
2023-05-04T16:20:55.365Z,100634.94
2023-05-04T16:23:21.973Z,100633.75
2023-05-04T16:25:48.590Z,100639.59
2023-05-04T16:28:15.156Z,100632.69
2023-05-04T16:30:42.955Z,100635.97
2023-05-04T16:33:09.626Z,100641.28
2023-05-04T16:35:36.743Z,100641.22
2023-05-04T16:38:04.010Z,100645.03
2023-05-04T16:40:32.718Z,100643.84
2023-05-04T16:42:59.522Z,100645.66
2023-05-04T16:45:31.201Z,100645.44
2023-05-04T16:47:58.739Z,100647.31
2023-05-04T16:50:25.428Z,100642.72
2023-05-04T16:52:52.007Z,100648.84
2023-05-04T16:55:19.239Z,100649.25
2023-05-04T16:57:46.108Z,100656.16
2023-05-04T17:00:13.980Z,100661.34
2023-05-04T17:02:40.702Z,100655.25
2023-05-04T17:05:10.209Z,100666.72
2023-05-04T17:07:39.570Z,100667.63
2023-05-04T17:10:08.129Z,100674.78
2023-05-04T17:12:35.850Z,100667.84
2023-05-04T17:15:03.563Z,100674.38
2023-05-04T17:17:30.218Z,100671.47
2023-05-04T17:19:56.890Z,100666.69
2023-05-04T17:22:25.286Z,100667.31
2023-05-04T17:24:52.452Z,100673.13
2023-05-04T17:27:19.224Z,100669.59
2023-05-04T17:29:45.915Z,100674.50
2023-05-04T17:32:12.544Z,100677.28
2023-05-04T17:34:39.225Z,100682.41
2023-05-04T17:37:05.834Z,100680.97
2023-05-04T17:39:32.481Z,100685.44
2023-05-04T17:41:59.732Z,100683.91
2023-05-04T17:44:28.267Z,100694.72
2023-05-04T17:46:54.965Z,100692.75
2023-05-04T17:49:21.524Z,100694.50
2023-05-04T17:51:49.377Z,100694.31
2023-05-04T17:54:17.121Z,100702.00
2023-05-04T17:56:43.813Z,100703.44
2023-05-04T17:59:10.416Z,100708.78
2023-05-04T18:01:37.063Z,100712.53
2023-05-04T18:04:04.239Z,100713.09
2023-05-04T18:06:32.629Z,100716.19
2023-05-04T18:09:00.691Z,100713.50
2023-05-04T18:11:27.411Z,100726.09
2023-05-04T18:13:56.625Z,100728.19
2023-05-04T18:16:24.306Z,100734.97
2023-05-04T18:18:51.368Z,100730.03
2023-05-04T18:21:18.292Z,100740.38
2023-05-04T18:23:45.053Z,100740.91
2023-05-04T18:26:17.963Z,100741.06
2023-05-04T18:28:44.523Z,100746.63
2023-05-04T18:31:11.114Z,100751.03
2023-05-04T18:33:38.304Z,100748.31
2023-05-04T18:36:05.392Z,100749.44
2023-05-04T18:38:33.136Z,100753.50
2023-05-04T18:40:59.700Z,100754.66
2023-05-04T18:43:26.265Z,100764.44
2023-05-04T18:45:52.845Z,100763.34
2023-05-04T18:48:19.383Z,100769.03
2023-05-04T18:50:54.026Z,100769.25
2023-05-04T18:53:20.897Z,100778.19
2023-05-04T18:55:47.455Z,100776.41
2023-05-04T18:58:13.994Z,100786.97
2023-05-04T19:00:42.376Z,100783.75
2023-05-04T19:03:09.070Z,100783.84
2023-05-04T19:05:36.124Z,100789.50
2023-05-04T19:08:02.662Z,100783.09
2023-05-04T19:10:29.251Z,100784.25
2023-05-04T19:12:56.027Z,100784.19
2023-05-04T19:15:24.023Z,100791.53
2023-05-04T19:17:50.639Z,100798.56
2023-05-04T19:20:18.723Z,100795.91
2023-05-04T19:22:45.985Z,100801.09
2023-05-04T19:25:23.349Z,100797.56
2023-05-04T19:28:00.519Z,100806.81
2023-05-04T19:30:27.244Z,100806.00
2023-05-04T19:32:53.859Z,100803.34
2023-05-04T19:35:20.485Z,100803.59
2023-05-04T19:37:47.832Z,100812.50
2023-05-04T19:40:14.501Z,100817.34
2023-05-04T19:42:46.113Z,100826.03
2023-05-04T19:45:14.060Z,100809.53
2023-05-04T19:47:41.695Z,100816.63
2023-05-04T19:50:11.564Z,100821.47
2023-05-04T19:52:38.498Z,100812.38
2023-05-04T19:55:06.228Z,100819.50
2023-05-04T19:57:33.145Z,100805.97
2023-05-04T19:59:59.826Z,100816.53
2023-05-04T20:02:26.887Z,100812.53
2023-05-04T20:04:53.885Z,100810.41
2023-05-04T20:07:20.520Z,100806.69
2023-05-04T20:09:47.108Z,100809.09
2023-05-04T20:12:13.717Z,100815.75
2023-05-04T20:14:41.232Z,100811.19
2023-05-04T20:17:07.909Z,100816.97
2023-05-04T20:19:34.549Z,100812.63
2023-05-04T20:22:01.113Z,100817.06
2023-05-04T20:24:27.861Z,100817.94
2023-05-04T20:26:54.434Z,100823.09
2023-05-04T20:29:21.204Z,100813.59
2023-05-04T20:31:47.799Z,100810.56
2023-05-04T20:34:15.104Z,100812.56
2023-05-04T20:36:42.892Z,100819.06
2023-05-04T20:39:10.200Z,100818.31
2023-05-04T20:41:37.001Z,100819.06
2023-05-04T20:44:04.373Z,100813.38
2023-05-04T20:46:31.880Z,100807.88
2023-05-04T20:48:59.469Z,100809.69
2023-05-04T20:51:27.171Z,100817.94
2023-05-04T20:53:53.840Z,100819.97
2023-05-04T20:56:20.412Z,100826.91
2023-05-04T20:58:46.975Z,100838.44
2023-05-04T21:01:13.548Z,100840.84
2023-05-04T21:03:40.318Z,100830.91
2023-05-04T21:06:06.964Z,100840.41
2023-05-04T21:08:33.547Z,100836.19
2023-05-04T21:11:00.312Z,100840.47
2023-05-04T21:13:26.921Z,100829.44
2023-05-04T21:15:53.485Z,100829.28
2023-05-04T21:18:20.106Z,100838.25
2023-05-04T21:20:46.931Z,100831.44
2023-05-04T21:23:13.550Z,100835.81
2023-05-04T21:25:40.392Z,100842.91
2023-05-04T21:28:06.980Z,100835.00
2023-05-04T21:30:33.582Z,100835.16
2023-05-04T21:33:00.777Z,100839.31
2023-05-04T21:35:31.011Z,100837.75
2023-05-04T21:37:58.739Z,100844.59
2023-05-04T21:40:28.655Z,100842.31
2023-05-04T21:42:55.325Z,100848.16
2023-05-04T21:45:21.940Z,100845.06
2023-05-04T21:47:48.786Z,100841.38
2023-05-04T21:50:16.281Z,100842.81
2023-05-04T21:52:42.868Z,100830.44
2023-05-04T21:55:09.694Z,100850.91
2023-05-04T21:57:36.388Z,100847.22
2023-05-04T22:00:06.658Z,100840.94
2023-05-04T22:02:33.427Z,100850.47
2023-05-04T22:05:00.068Z,100848.47
2023-05-04T22:07:26.859Z,100856.47
2023-05-04T22:09:53.444Z,100854.63
2023-05-04T22:12:20.005Z,100860.59
2023-05-04T22:14:46.701Z,100855.03
2023-05-04T22:17:13.320Z,100860.44
2023-05-04T22:19:39.919Z,100865.69
2023-05-04T22:22:06.700Z,100866.84
2023-05-04T22:24:33.286Z,100862.84
2023-05-04T22:26:59.826Z,100864.81
2023-05-04T22:29:26.387Z,100862.53
2023-05-04T22:31:52.950Z,100856.56
2023-05-04T22:34:19.565Z,100863.25
2023-05-04T22:36:46.697Z,100863.53
2023-05-04T22:39:13.288Z,100857.56
2023-05-04T22:41:39.815Z,100860.66
2023-05-04T22:44:07.395Z,100857.38
2023-05-04T22:46:34.085Z,100858.50
2023-05-04T22:49:00.700Z,100850.81
2023-05-04T22:51:27.462Z,100852.81
2023-05-04T22:53:54.032Z,100843.97
2023-05-04T22:56:20.949Z,100846.97
2023-05-04T22:58:48.311Z,100851.50
2023-05-04T23:01:14.958Z,100838.13
2023-05-04T23:03:41.725Z,100842.81
2023-05-04T23:06:08.872Z,100851.03
2023-05-04T23:08:35.526Z,100836.97
2023-05-04T23:11:02.097Z,100839.66
2023-05-04T23:13:28.685Z,100848.75
2023-05-04T23:15:55.365Z,100843.66
2023-05-04T23:18:22.063Z,100846.47
2023-05-04T23:20:48.621Z,100847.59
2023-05-04T23:23:15.160Z,100847.00
2023-05-04T23:25:41.722Z,100841.03
2023-05-04T23:28:08.288Z,100837.72
2023-05-04T23:30:34.835Z,100836.16
2023-05-04T23:33:01.549Z,100842.41
2023-05-04T23:35:28.232Z,100838.25
2023-05-04T23:37:54.843Z,100835.84
2023-05-04T23:40:21.710Z,100830.56
2023-05-04T23:42:51.102Z,100830.13
2023-05-04T23:45:17.749Z,100834.09
2023-05-04T23:47:44.432Z,100832.06
2023-05-04T23:50:11.654Z,100827.31
2023-05-04T23:52:38.263Z,100846.97
2023-05-04T23:55:05.340Z,100834.44
2023-05-04T23:57:32.171Z,100832.13
2023-05-04T23:59:58.760Z,100840.75
